createdAt,value
2019-02-16T00:01:55.537Z,59.53
2019-02-16T00:04:21.414Z,60.26
2019-02-16T00:06:47.311Z,59.87
2019-02-16T00:09:13.172Z,59.69
2019-02-16T00:11:39.154Z,59.41
2019-02-16T00:14:05.034Z,59.03
2019-02-16T00:16:30.991Z,58.74
2019-02-16T00:18:56.988Z,58.35
2019-02-16T00:21:22.860Z,58.74
2019-02-16T00:23:48.729Z,58.33
2019-02-16T00:26:14.674Z,58.65
2019-02-16T00:28:40.676Z,59.07
2019-02-16T00:31:06.559Z,58.86
2019-02-16T00:33:32.438Z,58.84
2019-02-16T00:35:58.339Z,59.48
2019-02-16T00:38:24.230Z,59.11
2019-02-16T00:40:50.120Z,59.17
2019-02-16T00:43:16.099Z,59.48
2019-02-16T00:45:41.974Z,59.78
2019-02-16T00:48:07.836Z,59.88
2019-02-16T00:50:33.762Z,59.48
2019-02-16T00:52:59.691Z,59.61
2019-02-16T00:55:25.648Z,59.34
2019-02-16T00:57:51.569Z,59.28
2019-02-16T01:00:17.536Z,59.46
2019-02-16T01:02:43.506Z,59.39
2019-02-16T01:05:09.522Z,59.67
2019-02-16T01:07:35.379Z,59.52
2019-02-16T01:10:01.455Z,59.50
2019-02-16T01:12:27.364Z,60.02
2019-02-16T01:14:53.240Z,60.29
2019-02-16T01:17:19.310Z,60.38
2019-02-16T01:19:45.219Z,60.67
2019-02-16T01:22:11.174Z,60.56
2019-02-16T01:24:37.032Z,59.96
2019-02-16T01:27:03.164Z,60.00
2019-02-16T01:29:29.150Z,60.57
2019-02-16T01:31:55.135Z,60.29
2019-02-16T01:34:21.070Z,60.70
2019-02-16T01:36:46.952Z,60.95
2019-02-16T01:39:12.821Z,60.62
2019-02-16T01:41:38.819Z,60.48
2019-02-16T01:44:04.800Z,60.60
2019-02-16T01:46:30.680Z,60.74
2019-02-16T01:48:56.542Z,61.16
2019-02-16T01:51:31.446Z,61.85
2019-02-16T01:53:53.558Z,62.11
2019-02-16T01:56:19.424Z,61.92
2019-02-16T01:58:45.288Z,62.23
2019-02-16T02:01:11.255Z,61.70
2019-02-16T02:03:37.110Z,61.54
2019-02-16T02:06:03.343Z,61.37
2019-02-16T02:08:29.349Z,61.24
2019-02-16T02:10:55.221Z,61.23
2019-02-16T02:13:21.116Z,61.47
2019-02-16T02:15:46.993Z,61.47
2019-02-16T02:18:12.875Z,61.86
2019-02-16T02:20:38.876Z,62.26
2019-02-16T02:23:04.770Z,62.39
2019-02-16T02:25:30.641Z,61.80
2019-02-16T02:27:56.572Z,61.78
2019-02-16T02:30:22.531Z,61.66
2019-02-16T02:32:48.500Z,62.38
2019-02-16T02:35:14.508Z,62.07
2019-02-16T02:37:40.503Z,61.27
2019-02-16T02:40:06.818Z,61.14
2019-02-16T02:42:32.700Z,60.91
2019-02-16T02:44:58.665Z,60.54
2019-02-16T02:47:24.563Z,59.99
2019-02-16T02:49:50.678Z,59.76
2019-02-16T02:52:16.626Z,59.36
2019-02-16T02:54:42.598Z,59.26
2019-02-16T02:57:08.477Z,59.51
2019-02-16T02:59:34.364Z,59.78
2019-02-16T03:02:00.246Z,60.07
2019-02-16T03:04:26.307Z,59.99
2019-02-16T03:06:52.237Z,60.52
2019-02-16T03:09:18.141Z,61.07
2019-02-16T03:11:44.018Z,61.40
2019-02-16T03:14:10.007Z,61.07
2019-02-16T03:16:35.869Z,61.18
2019-02-16T03:19:01.754Z,61.29
2019-02-16T03:21:27.730Z,61.98
2019-02-16T03:23:53.593Z,61.34
2019-02-16T03:26:35.433Z,61.64
2019-02-16T03:29:20.175Z,61.83
2019-02-16T03:31:53.030Z,61.84
2019-02-16T03:34:34.778Z,61.48
2019-02-16T03:37:07.396Z,61.48
2019-02-16T03:39:34.972Z,61.86
2019-02-16T03:42:01.002Z,61.76
2019-02-16T03:44:27.000Z,61.85
2019-02-16T03:46:52.962Z,61.97
2019-02-16T03:49:18.975Z,61.91
2019-02-16T03:51:44.982Z,61.81
2019-02-16T03:54:10.851Z,61.64
2019-02-16T03:56:36.932Z,61.71
2019-02-16T03:59:02.855Z,62.33
2019-02-16T04:01:28.849Z,61.79
2019-02-16T04:03:54.687Z,62.44
2019-02-16T04:06:20.669Z,62.45
2019-02-16T04:08:46.581Z,62.30
2019-02-16T04:11:12.478Z,61.92
2019-02-16T04:13:38.358Z,61.31
2019-02-16T04:16:04.260Z,61.07
2019-02-16T04:18:30.123Z,61.47
2019-02-16T04:20:56.001Z,61.54
2019-02-16T04:23:21.876Z,61.64
2019-02-16T04:25:47.736Z,61.64
2019-02-16T04:28:13.706Z,62.05
2019-02-16T04:30:39.695Z,62.31
2019-02-16T04:33:05.703Z,62.43
2019-02-16T04:35:31.539Z,63.59
2019-02-16T04:37:57.547Z,62.93
2019-02-16T04:40:23.462Z,62.76
2019-02-16T04:42:49.358Z,62.76
2019-02-16T04:45:15.363Z,62.73
2019-02-16T04:47:41.235Z,62.89
2019-02-16T04:50:07.124Z,62.89
2019-02-16T04:52:35.114Z,62.07
2019-02-16T04:55:01.055Z,62.07
2019-02-16T04:57:31.097Z,62.07
2019-02-16T04:59:57.040Z,62.40
2019-02-16T05:02:22.925Z,62.40
2019-02-16T05:04:48.840Z,62.12
2019-02-16T05:07:14.747Z,62.21
2019-02-16T05:09:40.600Z,62.33
2019-02-16T05:12:06.477Z,61.77
2019-02-16T05:14:32.589Z,61.52
2019-02-16T05:16:58.421Z,61.91
2019-02-16T05:19:24.388Z,62.87
2019-02-16T05:21:50.340Z,62.60
2019-02-16T05:24:16.291Z,61.99
2019-02-16T05:26:42.256Z,62.13
2019-02-16T05:29:08.211Z,62.22
2019-02-16T05:31:34.061Z,62.40
2019-02-16T05:33:59.942Z,61.64
2019-02-16T05:36:25.841Z,62.61
2019-02-16T05:38:51.829Z,62.59
2019-02-16T05:41:17.727Z,62.76
2019-02-16T05:43:43.679Z,62.53
2019-02-16T05:46:09.598Z,62.29
2019-02-16T05:48:35.524Z,62.18
2019-02-16T05:51:01.459Z,62.53
2019-02-16T05:53:27.416Z,61.58
2019-02-16T05:55:53.311Z,61.69
2019-02-16T05:58:19.225Z,62.11
2019-02-16T06:00:45.136Z,62.07
2019-02-16T06:03:11.124Z,62.32
2019-02-16T06:05:37.130Z,62.64
2019-02-16T06:08:03.114Z,62.41
2019-02-16T06:10:29.135Z,62.38
2019-02-16T06:12:55.208Z,62.44
2019-02-16T06:15:21.104Z,62.07
2019-02-16T06:17:47.135Z,62.07
2019-02-16T06:20:13.077Z,62.02
2019-02-16T06:22:38.947Z,61.79
2019-02-16T06:25:05.133Z,61.82
2019-02-16T06:27:31.027Z,61.75
2019-02-16T06:29:56.927Z,61.61
2019-02-16T06:32:22.877Z,61.84
2019-02-16T06:34:50.774Z,62.23
2019-02-16T06:37:20.587Z,62.66
2019-02-16T06:39:47.660Z,62.53
2019-02-16T06:42:13.560Z,62.23
2019-02-16T06:44:39.450Z,62.23
2019-02-16T06:47:05.312Z,61.76
2019-02-16T06:49:31.202Z,61.67
2019-02-16T06:51:57.076Z,61.81
2019-02-16T06:54:22.958Z,61.93
2019-02-16T06:57:02.683Z,61.79
2019-02-16T06:59:28.782Z,61.76
2019-02-16T07:01:54.748Z,61.59
2019-02-16T07:04:20.762Z,61.59
2019-02-16T07:06:46.786Z,61.24
2019-02-16T07:09:12.762Z,61.20
2019-02-16T07:11:38.694Z,61.20
2019-02-16T07:14:04.634Z,60.84
2019-02-16T07:16:32.398Z,61.04
2019-02-16T07:19:02.962Z,60.40
2019-02-16T07:21:29.045Z,59.86
2019-02-16T07:23:54.935Z,59.62
2019-02-16T07:26:20.949Z,59.62
2019-02-16T07:28:46.927Z,59.66
2019-02-16T07:31:12.827Z,59.08
2019-02-16T07:33:38.721Z,58.47
2019-02-16T07:36:04.713Z,58.08
2019-02-16T07:38:30.801Z,58.19
2019-02-16T07:40:57.032Z,57.86
2019-02-16T07:43:36.849Z,58.03
2019-02-16T07:46:04.685Z,57.62
2019-02-16T07:48:32.586Z,57.56
2019-02-16T07:51:00.377Z,57.79
2019-02-16T07:53:31.349Z,57.38
2019-02-16T07:56:00.998Z,57.15
2019-02-16T07:58:32.111Z,56.84
2019-02-16T08:01:02.614Z,56.59
2019-02-16T08:03:39.323Z,55.73
2019-02-16T08:06:07.247Z,55.73
2019-02-16T08:08:37.740Z,55.34
2019-02-16T08:11:05.574Z,54.93
2019-02-16T08:13:39.643Z,54.32
2019-02-16T08:16:07.412Z,54.36
2019-02-16T08:18:47.082Z,54.44
2019-02-16T08:21:17.580Z,54.10
2019-02-16T08:24:02.127Z,54.07
2019-02-16T08:26:29.899Z,53.43
2019-02-16T08:29:00.802Z,53.32
2019-02-16T08:31:28.596Z,53.58
2019-02-16T08:34:05.218Z,53.51
2019-02-16T08:36:33.037Z,53.40
2019-02-16T08:39:10.107Z,53.11
2019-02-16T08:41:40.677Z,53.03
2019-02-16T08:44:11.157Z,52.18
2019-02-16T08:46:38.924Z,52.19
2019-02-16T08:49:21.901Z,52.02
2019-02-16T08:51:52.613Z,52.02
2019-02-16T08:54:29.621Z,51.70
2019-02-16T08:56:57.373Z,51.28
2019-02-16T08:59:42.323Z,50.55
2019-02-16T09:02:12.874Z,50.39
2019-02-16T09:04:56.829Z,50.48
2019-02-16T09:07:41.547Z,50.49
2019-02-16T09:10:12.053Z,48.42
2019-02-16T09:12:42.721Z,47.31
2019-02-16T09:15:16.310Z,46.40
2019-02-16T09:17:44.067Z,47.39
2019-02-16T09:20:17.876Z,46.97
2019-02-16T09:22:54.657Z,45.77
2019-02-16T09:25:25.164Z,44.91
2019-02-16T09:27:53.128Z,44.72
2019-02-16T09:30:37.488Z,45.31
2019-02-16T09:33:05.365Z,44.80
2019-02-16T09:35:45.206Z,44.09
2019-02-16T09:38:15.970Z,43.98
2019-02-16T09:40:46.720Z,44.63
2019-02-16T09:43:17.325Z,44.13
2019-02-16T09:45:57.223Z,44.50
2019-02-16T12:23:02.283Z,38.31
2019-02-16T12:25:48.131Z,37.12
2019-02-16T12:28:32.713Z,31.97
2019-02-16T12:31:00.594Z,32.22
2019-02-16T12:33:29.009Z,30.57
2019-02-16T12:35:59.765Z,29.46
2019-02-16T12:38:33.357Z,26.75
2019-02-16T12:41:01.120Z,31.24
2019-02-16T12:43:29.039Z,30.60
2019-02-16T12:46:00.019Z,31.29
2019-02-16T12:48:30.554Z,30.75
2019-02-16T12:50:59.535Z,31.25
2019-02-16T12:53:42.775Z,30.57
2019-02-16T12:56:10.549Z,34.92
2019-02-16T12:58:47.429Z,30.92
2019-02-16T13:01:21.086Z,27.19
2019-02-16T13:03:51.689Z,27.08
2019-02-16T13:06:19.503Z,25.41
2019-02-16T13:08:47.298Z,25.49
2019-02-16T13:11:15.110Z,27.01
2019-02-16T13:13:42.920Z,23.27
2019-02-16T13:16:10.806Z,24.85
2019-02-16T13:18:47.901Z,24.20
2019-02-16T13:21:18.404Z,22.44
2019-02-16T13:23:55.372Z,21.46
2019-02-16T13:26:31.947Z,21.96
2019-02-16T13:29:14.828Z,19.67
2019-02-16T13:31:48.505Z,20.46
2019-02-16T13:34:33.203Z,23.51
2019-02-16T13:37:12.936Z,21.59
2019-02-16T13:39:40.766Z,20.53
2019-02-16T13:42:11.544Z,20.20
2019-02-16T13:44:41.856Z,23.79
2019-02-16T13:47:09.702Z,22.19
2019-02-16T13:49:37.456Z,20.30
2019-02-16T13:52:14.625Z,19.33
2019-02-16T13:54:45.364Z,17.92
2019-02-16T13:57:31.356Z,16.68
2019-02-16T13:59:59.154Z,20.46
2019-02-16T14:02:32.823Z,22.35
2019-02-16T14:05:03.669Z,22.04
2019-02-16T14:07:31.432Z,21.79
2019-02-16T14:09:59.247Z,20.74
2019-02-16T14:12:32.839Z,19.15
2019-02-16T14:15:03.622Z,18.23
2019-02-16T14:17:34.121Z,21.18
2019-02-16T14:20:00.022Z,22.33
2019-02-16T14:22:25.913Z,21.39
2019-02-16T14:24:57.555Z,18.19
2019-02-16T14:27:23.551Z,19.00
2019-02-16T14:29:49.448Z,21.33
2019-02-16T14:32:15.354Z,18.87
2019-02-16T14:34:41.223Z,21.31
2019-02-16T14:37:09.012Z,22.11
2019-02-16T14:39:35.019Z,24.91
2019-02-16T14:42:00.891Z,25.30
2019-02-16T14:44:26.823Z,24.55
2019-02-16T14:46:52.792Z,24.23
2019-02-16T14:49:18.688Z,21.67
2019-02-16T14:51:44.688Z,20.72
2019-02-16T14:54:10.550Z,20.01
2019-02-16T14:56:36.543Z,19.92
2019-02-16T14:59:02.552Z,22.13
2019-02-16T15:01:28.448Z,20.06
2019-02-16T15:03:54.335Z,21.49
2019-02-16T15:06:20.329Z,23.37
2019-02-16T15:08:46.237Z,24.34
2019-02-16T15:11:12.108Z,24.05
2019-02-16T15:13:37.999Z,22.74
2019-02-16T15:16:04.259Z,24.95
2019-02-16T15:18:30.162Z,25.16
2019-02-16T15:20:56.102Z,26.90
2019-02-16T15:23:22.170Z,25.05
2019-02-16T15:25:48.213Z,25.02
2019-02-16T15:28:14.081Z,23.64
2019-02-16T15:30:40.018Z,24.83
2019-02-16T15:33:05.870Z,26.41
2019-02-16T15:35:31.832Z,32.97
2019-02-16T15:37:57.823Z,35.67
2019-02-16T15:40:23.897Z,36.29
2019-02-16T15:42:49.796Z,37.44
2019-02-16T15:45:15.957Z,37.71
2019-02-16T15:47:41.827Z,38.23
2019-02-16T15:50:09.912Z,38.83
2019-02-16T15:52:35.918Z,39.52
2019-02-16T15:55:02.007Z,39.62
2019-02-16T15:57:27.971Z,40.15
2019-02-16T15:59:54.051Z,40.24
2019-02-16T16:02:19.978Z,40.33
2019-02-16T16:04:46.001Z,40.81
2019-02-16T16:07:13.839Z,41.25
2019-02-16T16:09:47.621Z,41.84
2019-02-16T16:12:22.062Z,42.20
2019-02-16T16:14:49.917Z,42.38
2019-02-16T16:17:17.728Z,42.55
2019-02-16T16:19:54.614Z,43.20
2019-02-16T16:22:25.255Z,43.27
2019-02-16T16:25:09.712Z,43.65
2019-02-16T16:27:40.223Z,43.84
2019-02-16T16:30:14.507Z,44.00
2019-02-16T16:32:58.793Z,44.59
2019-02-16T16:35:38.410Z,44.55
2019-02-16T16:38:12.204Z,45.63
2019-02-16T16:40:52.157Z,45.80
2019-02-16T16:43:20.121Z,46.27
2019-02-16T16:45:59.905Z,46.66
2019-02-16T16:48:30.430Z,46.98
2019-02-16T16:51:01.165Z,47.27
2019-02-16T16:53:31.691Z,48.67
2019-02-16T16:55:59.664Z,48.22
2019-02-16T16:58:33.304Z,50.32
2019-02-16T17:01:13.130Z,49.71
2019-02-16T17:03:41.060Z,49.50
2019-02-16T17:06:09.061Z,50.85
2019-02-16T17:08:36.847Z,51.13
2019-02-16T17:11:04.766Z,51.47
2019-02-16T17:13:32.576Z,51.29
2019-02-16T17:16:17.148Z,51.57
2019-02-16T17:18:47.696Z,52.81
2019-02-16T17:21:15.476Z,52.33
2019-02-16T17:23:55.646Z,53.35
2019-02-16T17:26:26.299Z,52.95
2019-02-16T17:29:03.344Z,54.29
2019-02-16T17:31:37.106Z,53.38
2019-02-16T17:34:13.940Z,53.61
2019-02-16T17:36:42.289Z,53.55
2019-02-16T17:39:10.211Z,53.87
2019-02-16T17:41:56.119Z,54.35
2019-02-16T17:44:33.107Z,54.77
2019-02-16T17:47:09.664Z,55.29
2019-02-16T17:49:46.589Z,55.39
2019-02-16T17:52:31.114Z,55.21
2019-02-16T17:55:07.864Z,55.52
2019-02-16T17:57:35.679Z,55.55
2019-02-16T18:00:04.849Z,56.37
2019-02-16T18:02:41.648Z,55.20
2019-02-16T18:05:18.360Z,54.88
2019-02-16T18:07:48.901Z,55.45
2019-02-16T18:10:31.999Z,55.61
2019-02-16T18:12:59.801Z,56.54
2019-02-16T18:15:47.471Z,56.65
2019-02-16T18:18:27.260Z,56.46
2019-02-16T18:20:55.051Z,56.54
2019-02-16T18:23:39.767Z,56.35
2019-02-16T18:26:13.347Z,56.86
2019-02-16T18:28:57.072Z,56.54
2019-02-16T18:31:38.291Z,57.48
2019-02-16T18:34:15.059Z,57.85
2019-02-16T18:37:01.398Z,57.57
2019-02-16T18:39:41.292Z,57.25
2019-02-16T18:42:27.443Z,57.02
2019-02-16T18:44:55.485Z,57.23
2019-02-16T18:47:35.546Z,57.78
2019-02-16T18:50:21.912Z,57.78
2019-02-16T18:53:01.704Z,57.90
2019-02-16T18:55:35.371Z,58.15
2019-02-16T18:58:12.043Z,57.92
2019-02-16T19:00:42.677Z,58.23
2019-02-16T19:03:10.565Z,58.47
2019-02-16T19:05:55.158Z,58.16
2019-02-16T19:08:23.037Z,58.60
2019-02-16T19:10:50.908Z,58.17
2019-02-16T19:13:18.739Z,58.59
2019-02-16T19:16:03.318Z,58.15
2019-02-16T19:18:43.214Z,58.93
2019-02-16T19:21:17.184Z,59.15
2019-02-16T19:23:53.887Z,58.67
2019-02-16T19:26:24.481Z,59.13
2019-02-16T19:28:52.338Z,58.98
2019-02-16T19:31:36.734Z,58.68
2019-02-16T19:34:19.483Z,58.99
2019-02-16T19:36:53.429Z,59.02
2019-02-16T19:39:21.303Z,58.74
2019-02-16T19:41:52.391Z,59.17
2019-02-16T19:44:20.661Z,59.28
2019-02-16T19:46:48.913Z,59.15
2019-02-16T19:49:23.364Z,59.28
2019-02-16T19:51:51.994Z,59.37
2019-02-16T19:54:32.769Z,59.34
2019-02-16T19:57:04.240Z,59.52
2019-02-16T19:59:32.949Z,59.25
2019-02-16T20:02:01.370Z,59.14
2019-02-16T20:04:46.592Z,59.06
2019-02-16T20:07:18.124Z,58.77
2019-02-16T20:09:55.963Z,58.86
2019-02-16T20:12:24.804Z,58.98
2019-02-16T20:15:10.392Z,59.05
2019-02-16T20:17:39.439Z,58.81
2019-02-16T20:20:12.780Z,59.14
2019-02-16T20:22:53.374Z,59.34
2019-02-16T20:25:21.997Z,59.89
2019-02-16T20:27:50.666Z,59.41
2019-02-16T20:30:28.096Z,59.50
2019-02-16T20:33:01.694Z,59.90
2019-02-16T20:35:29.479Z,59.74
2019-02-16T20:37:57.445Z,59.76
2019-02-16T20:40:28.397Z,60.01
2019-02-16T20:42:56.179Z,60.06
2019-02-16T20:45:30.076Z,60.22
2019-02-16T20:48:03.727Z,60.18
2019-02-16T20:50:40.793Z,60.28
2019-02-16T20:53:23.869Z,60.71
2019-02-16T20:56:00.725Z,60.60
2019-02-16T20:58:28.529Z,60.24
2019-02-16T21:00:59.070Z,60.22
2019-02-16T21:03:27.370Z,60.38
2019-02-16T21:06:01.807Z,60.66
2019-02-16T21:08:36.775Z,60.18
2019-02-16T21:11:05.949Z,60.19
2019-02-16T21:13:34.931Z,60.31
2019-02-16T21:16:06.824Z,60.87
2019-02-16T21:18:35.687Z,61.08
2019-02-16T21:21:23.154Z,61.00
2019-02-16T21:23:55.179Z,61.33
2019-02-16T21:26:37.003Z,62.61
2019-02-16T21:29:13.392Z,61.13
2019-02-16T21:31:54.785Z,60.76
2019-02-16T21:34:23.589Z,60.27
2019-02-16T21:36:52.089Z,60.53
2019-02-16T21:39:32.217Z,61.53
2019-02-16T21:42:06.422Z,62.14
2019-02-16T21:44:40.028Z,61.74
2019-02-16T21:47:07.783Z,61.24
2019-02-16T21:49:39.540Z,61.52
2019-02-16T21:52:13.553Z,61.46
2019-02-16T21:54:59.512Z,61.10
2019-02-16T21:57:39.347Z,61.21
2019-02-16T22:00:24.804Z,61.32
2019-02-16T22:02:55.305Z,61.17
2019-02-16T22:05:32.178Z,61.47
2019-02-16T22:07:59.945Z,61.22
2019-02-16T22:10:45.865Z,61.36
2019-02-16T22:13:11.890Z,61.63
2019-02-16T22:15:37.872Z,61.62
2019-02-16T22:18:07.196Z,61.47
2019-02-16T22:20:33.177Z,61.32
2019-02-16T22:22:59.166Z,61.48
2019-02-16T22:25:25.179Z,61.34
2019-02-16T22:27:51.033Z,61.39
2019-02-16T22:30:17.056Z,61.50
2019-02-16T22:32:42.948Z,61.18
2019-02-16T22:35:08.934Z,61.33
2019-02-16T22:37:34.817Z,61.55
2019-02-16T22:40:00.837Z,61.97
2019-02-16T22:42:26.691Z,62.06
2019-02-16T22:44:52.654Z,61.72
2019-02-16T22:47:18.649Z,61.97
2019-02-16T22:49:44.516Z,62.29
2019-02-16T22:52:10.541Z,62.31
2019-02-16T22:54:36.435Z,62.35
2019-02-16T22:57:02.393Z,62.43
2019-02-16T22:59:28.334Z,62.48
2019-02-16T23:01:54.435Z,62.42
2019-02-16T23:04:20.597Z,62.12
2019-02-16T23:06:46.771Z,62.08
2019-02-16T23:09:14.961Z,61.97
2019-02-16T23:11:40.836Z,62.13
2019-02-16T23:14:06.819Z,61.92
2019-02-16T23:16:32.907Z,61.72
2019-02-16T23:19:02.489Z,61.87
2019-02-16T23:21:28.364Z,62.17
2019-02-16T23:23:54.342Z,62.43
2019-02-16T23:26:20.245Z,62.76
2019-02-16T23:28:46.208Z,63.01
2019-02-16T23:31:12.077Z,62.88
2019-02-16T23:33:38.101Z,62.83
2019-02-16T23:36:04.010Z,62.66
2019-02-16T23:38:31.088Z,63.07
2019-02-16T23:40:57.109Z,62.95
2019-02-16T23:43:23.095Z,62.84
2019-02-16T23:45:49.188Z,62.92
2019-02-16T23:48:15.211Z,62.85
2019-02-16T23:50:41.211Z,62.65
2019-02-16T23:53:07.194Z,62.58
2019-02-16T23:55:33.092Z,62.29
2019-02-16T23:57:59.077Z,62.32
